Terminal Aerodrome Forecast
Issued by NWS Pueblo, CO

Home | Current Version | Previous Version | Text Only | Print | Product List | Glossary On
Versions: 1 2 3 4 5 6 7 8 9 10 11 12 13 14
000
FTUS45 KPUB 231742
TAFALS
TAF
KALS 231742Z 2318/2418 21020G30KT P6SM SCT070 BKN120
     FM240200 25012KT P6SM SCT120
     FM240300 32010KT P6SM FEW150
     FM240800 VRB06KT P6SM FEW150=

USA.gov is the U.S. government's official web portal to all federal, state and local government web resources and services.